createdAt,value
2018-06-10T00:00:02.846Z,79.70
2018-06-10T00:02:33.228Z,79.25
2018-06-10T00:05:00.447Z,78.72
2018-06-10T00:07:27.672Z,78.79
2018-06-10T00:09:54.997Z,79.10
2018-06-10T00:12:22.308Z,78.62
2018-06-10T00:14:50.396Z,79.12
2018-06-10T00:17:17.787Z,79.86
2018-06-10T00:19:44.999Z,80.45
2018-06-10T00:22:12.324Z,79.52
2018-06-10T00:24:39.636Z,78.90
2018-06-10T00:27:07.009Z,78.55
2018-06-10T00:29:34.366Z,78.46
2018-06-10T00:32:01.626Z,79.65
2018-06-10T00:34:28.871Z,78.86
2018-06-10T00:36:56.152Z,78.98
2018-06-10T00:39:23.480Z,79.85
2018-06-10T00:41:50.748Z,79.43
2018-06-10T00:44:18.116Z,79.99
2018-06-10T00:46:45.375Z,79.66
2018-06-10T00:49:12.681Z,79.72
2018-06-10T00:51:40.036Z,79.23
2018-06-10T00:54:07.292Z,78.22
2018-06-10T00:56:46.328Z,77.79
2018-06-10T00:59:13.671Z,78.56
2018-06-10T01:01:40.990Z,79.20
2018-06-10T01:04:08.353Z,80.05
2018-06-10T01:06:35.621Z,79.68
2018-06-10T01:09:03.461Z,79.70
2018-06-10T01:11:30.722Z,79.70
2018-06-10T01:13:58.039Z,79.28
2018-06-10T01:16:25.392Z,80.41
2018-06-10T01:18:52.688Z,80.31
2018-06-10T01:21:19.953Z,79.25
2018-06-10T01:23:47.198Z,79.75
2018-06-10T01:26:19.992Z,79.31
2018-06-10T01:28:47.261Z,78.86
2018-06-10T01:31:14.556Z,78.90
2018-06-10T01:33:41.876Z,79.43
2018-06-10T01:36:09.220Z,79.45
2018-06-10T01:38:36.479Z,78.87
2018-06-10T01:41:03.851Z,79.73
2018-06-10T01:43:31.178Z,79.50
2018-06-10T01:45:58.425Z,80.02
2018-06-10T01:48:25.717Z,81.17
2018-06-10T01:50:52.999Z,80.76
2018-06-10T01:53:20.273Z,80.67
2018-06-10T01:55:47.553Z,80.58
2018-06-10T01:58:14.883Z,79.88
2018-06-10T02:00:42.270Z,80.13
2018-06-10T02:03:09.530Z,80.06
2018-06-10T02:05:36.849Z,79.28
2018-06-10T02:08:04.183Z,79.90
2018-06-10T02:10:31.487Z,80.02
2018-06-10T02:12:58.806Z,80.23
2018-06-10T02:15:26.145Z,80.24
2018-06-10T02:17:53.405Z,80.29
2018-06-10T02:20:20.637Z,81.20
2018-06-10T02:22:47.938Z,81.78
2018-06-10T02:25:15.394Z,81.07
2018-06-10T02:27:42.711Z,80.44
2018-06-10T02:30:10.027Z,80.36
2018-06-10T02:32:37.270Z,80.65
2018-06-10T02:35:04.563Z,80.55
2018-06-10T02:37:31.907Z,80.56
2018-06-10T02:39:59.184Z,80.23
2018-06-10T02:42:26.517Z,80.22
2018-06-10T02:44:53.839Z,80.74
2018-06-10T02:47:21.139Z,80.05
2018-06-10T02:49:48.523Z,80.15
2018-06-10T02:52:15.836Z,79.68
2018-06-10T02:54:43.085Z,79.42
2018-06-10T02:57:10.289Z,80.00
2018-06-10T02:59:37.562Z,80.05
2018-06-10T03:02:04.874Z,81.60
2018-06-10T03:04:32.181Z,81.87
2018-06-10T03:06:59.532Z,81.17
2018-06-10T03:09:26.824Z,81.59
2018-06-10T03:11:54.100Z,80.81
2018-06-10T03:14:21.323Z,80.47
2018-06-10T03:16:48.555Z,81.01
2018-06-10T03:19:15.844Z,80.67
2018-06-10T03:21:43.285Z,80.31
2018-06-10T03:24:10.512Z,80.35
2018-06-10T03:26:37.895Z,80.91
2018-06-10T03:29:05.197Z,80.55
2018-06-10T03:31:32.616Z,80.96
2018-06-10T03:33:59.909Z,80.31
2018-06-10T03:36:27.194Z,79.33
2018-06-10T03:38:54.515Z,79.66
2018-06-10T03:41:21.829Z,79.40
2018-06-10T03:43:49.121Z,80.82
2018-06-10T03:46:16.354Z,80.68
2018-06-10T03:48:43.621Z,80.01
2018-06-10T03:51:10.869Z,80.38
2018-06-10T03:53:38.122Z,80.64
2018-06-10T03:56:05.451Z,80.51
2018-06-10T03:58:32.707Z,80.68
2018-06-10T04:01:00.014Z,80.41
2018-06-10T04:03:27.283Z,80.23
2018-06-10T04:05:54.603Z,80.86
2018-06-10T04:08:21.831Z,80.88
2018-06-10T04:10:49.135Z,81.48
2018-06-10T04:13:16.378Z,81.40
2018-06-10T04:15:43.700Z,80.30
2018-06-10T04:18:10.962Z,79.50
2018-06-10T04:20:38.265Z,79.67
2018-06-10T04:23:05.459Z,80.30
2018-06-10T04:25:32.810Z,80.29
2018-06-10T04:28:00.016Z,80.03
2018-06-10T04:30:27.358Z,80.08
2018-06-10T04:32:54.583Z,80.01
2018-06-10T04:35:21.916Z,79.42
2018-06-10T04:37:49.197Z,79.86
2018-06-10T04:40:16.477Z,79.13
2018-06-10T04:42:43.730Z,79.83
2018-06-10T04:45:11.010Z,80.33
2018-06-10T04:47:38.279Z,80.54
2018-06-10T04:50:05.570Z,81.95
2018-06-10T04:52:32.839Z,81.30
2018-06-10T04:55:00.116Z,80.37
2018-06-10T04:57:27.397Z,79.49
2018-06-10T04:59:54.646Z,79.52
2018-06-10T05:02:21.915Z,80.11
2018-06-10T05:04:49.162Z,79.06
2018-06-10T05:07:16.470Z,79.37
2018-06-10T05:09:43.701Z,79.14
2018-06-10T05:12:11.033Z,79.45
2018-06-10T05:14:38.334Z,78.80
2018-06-10T05:17:05.667Z,77.85
2018-06-10T05:19:32.982Z,76.99
2018-06-10T05:22:00.251Z,77.30
2018-06-10T05:24:27.492Z,79.09
2018-06-10T05:26:54.821Z,79.78
2018-06-10T05:29:22.859Z,79.78
2018-06-10T05:31:50.102Z,80.27
2018-06-10T05:34:17.280Z,79.35
2018-06-10T05:36:44.559Z,79.93
2018-06-10T05:39:43.464Z,80.22
2018-06-10T05:42:10.776Z,81.18
2018-06-10T05:44:38.070Z,79.67
2018-06-10T05:47:05.334Z,80.08
2018-06-10T05:49:32.538Z,78.12
2018-06-10T05:51:59.830Z,78.29
2018-06-10T05:54:27.129Z,79.12
2018-06-10T05:56:54.392Z,77.73
2018-06-10T05:59:21.659Z,77.44
2018-06-10T06:01:48.972Z,76.85
2018-06-10T06:04:16.390Z,77.42
2018-06-10T06:06:43.743Z,77.32
2018-06-10T06:09:11.077Z,76.71
2018-06-10T06:11:38.386Z,77.07
2018-06-10T06:14:05.668Z,75.91
2018-06-10T06:16:32.996Z,76.20
2018-06-10T06:19:00.302Z,74.22
2018-06-10T06:21:27.568Z,73.48
2018-06-10T06:23:54.934Z,72.79
2018-06-10T06:26:22.319Z,73.40
2018-06-10T06:28:49.604Z,72.85
2018-06-10T06:31:16.866Z,72.14
2018-06-10T06:33:44.275Z,70.29
2018-06-10T06:36:11.588Z,69.60
2018-06-10T06:38:38.856Z,71.33
2018-06-10T06:41:06.230Z,69.60
2018-06-10T06:43:33.593Z,70.70
2018-06-10T06:46:00.866Z,70.12
2018-06-10T06:48:28.127Z,69.48
2018-06-10T06:50:55.407Z,68.84
2018-06-10T06:53:22.687Z,67.53
2018-06-10T06:55:50.015Z,66.69
2018-06-10T06:58:17.266Z,67.20
2018-06-10T07:00:44.570Z,63.98
2018-06-10T07:03:11.817Z,65.88
2018-06-10T07:05:39.193Z,67.97
2018-06-10T07:08:06.495Z,64.91
2018-06-10T07:10:33.805Z,66.32
2018-06-10T07:13:01.118Z,63.46
2018-06-10T07:15:28.400Z,61.75
2018-06-10T07:17:55.648Z,60.12
2018-06-10T07:20:22.949Z,61.88
2018-06-10T07:22:50.262Z,59.15
2018-06-10T07:25:17.582Z,59.44
2018-06-10T07:27:44.786Z,59.62
2018-06-10T07:30:12.080Z,59.78
2018-06-10T07:32:39.357Z,62.69
2018-06-10T07:35:06.671Z,61.38
2018-06-10T07:37:33.913Z,59.24
2018-06-10T07:40:01.214Z,60.56
2018-06-10T07:42:28.635Z,61.13
2018-06-10T07:44:55.910Z,63.47
2018-06-10T07:47:23.302Z,62.36
2018-06-10T07:49:50.629Z,62.04
2018-06-10T07:52:17.965Z,60.29
2018-06-10T07:54:45.335Z,59.87
2018-06-10T07:57:12.758Z,59.91
2018-06-10T07:59:40.148Z,58.48
2018-06-10T08:02:07.569Z,57.26
2018-06-10T08:04:34.937Z,57.95
2018-06-10T08:07:02.168Z,56.54
2018-06-10T08:09:29.434Z,58.09
2018-06-10T08:11:56.702Z,56.39
2018-06-10T08:14:24.017Z,56.91
2018-06-10T08:16:51.319Z,56.83
2018-06-10T08:19:18.683Z,55.77
2018-06-10T08:21:46.069Z,54.38
2018-06-10T08:24:13.833Z,53.45
2018-06-10T08:26:41.388Z,53.61
2018-06-10T08:29:08.781Z,53.66
2018-06-10T08:31:36.206Z,53.45
2018-06-10T08:34:03.467Z,51.97
2018-06-10T08:36:30.809Z,52.82
2018-06-10T08:38:58.178Z,53.96
2018-06-10T08:41:25.556Z,49.91
2018-06-10T08:43:53.011Z,49.32
2018-06-10T08:46:20.274Z,50.52
2018-06-10T08:48:47.528Z,50.87
2018-06-10T08:51:14.823Z,49.54
2018-06-10T08:53:42.211Z,49.46
2018-06-10T08:56:09.509Z,50.23
2018-06-10T08:58:36.761Z,52.13
2018-06-10T09:01:04.061Z,53.04
2018-06-10T09:03:31.415Z,49.13
2018-06-10T09:05:58.753Z,49.14
2018-06-10T09:08:26.092Z,50.28
2018-06-10T09:10:53.415Z,50.74
2018-06-10T09:13:20.729Z,51.73
2018-06-10T09:15:48.055Z,51.47
2018-06-10T09:18:15.483Z,47.92
2018-06-10T09:20:42.787Z,47.74
2018-06-10T09:23:10.121Z,46.09
2018-06-10T09:25:37.443Z,46.42
2018-06-10T09:28:04.879Z,47.36
2018-06-10T09:30:32.161Z,48.92
2018-06-10T09:32:59.464Z,47.09
2018-06-10T09:35:26.881Z,45.45
2018-06-10T09:37:54.197Z,46.67
2018-06-10T09:40:21.576Z,43.59
2018-06-10T09:42:48.837Z,46.47
2018-06-10T09:45:16.207Z,44.91
2018-06-10T09:47:43.692Z,41.74
2018-06-10T09:50:11.192Z,43.43
2018-06-10T09:52:38.510Z,45.79
2018-06-10T09:55:05.933Z,44.69
2018-06-10T09:57:33.202Z,46.37
2018-06-10T10:00:00.561Z,44.25
2018-06-10T10:02:27.833Z,43.71
2018-06-10T10:04:55.185Z,44.98
2018-06-10T10:07:22.618Z,43.10
2018-06-10T10:09:50.587Z,42.83
2018-06-10T10:12:17.962Z,46.24
2018-06-10T10:14:45.562Z,45.64
2018-06-10T10:17:13.651Z,42.50
2018-06-10T10:19:41.080Z,45.48
2018-06-10T10:22:08.394Z,45.23
2018-06-10T10:24:35.772Z,46.45
2018-06-10T10:27:03.175Z,48.47
2018-06-10T10:29:30.514Z,47.29
2018-06-10T10:31:57.933Z,44.39
2018-06-10T10:34:25.314Z,44.17
2018-06-10T10:36:52.876Z,41.39
2018-06-10T10:39:20.344Z,40.97
2018-06-10T10:41:47.701Z,40.92
2018-06-10T10:44:15.017Z,40.07
2018-06-10T10:46:42.242Z,39.94
2018-06-10T10:49:09.618Z,37.71
2018-06-10T10:51:37.138Z,40.62
2018-06-10T10:54:04.783Z,38.06
2018-06-10T10:56:32.185Z,37.19
2018-06-10T10:58:59.413Z,39.62
2018-06-10T11:01:26.739Z,39.71
2018-06-10T11:03:54.073Z,38.96
2018-06-10T11:06:21.417Z,40.07
2018-06-10T11:08:48.733Z,41.72
2018-06-10T11:11:16.055Z,41.84
2018-06-10T11:13:43.751Z,43.05
2018-06-10T11:16:10.997Z,41.37
2018-06-10T11:18:38.335Z,41.22
2018-06-10T11:21:05.684Z,42.01
2018-06-10T11:23:33.029Z,40.59
2018-06-10T11:26:00.383Z,40.57
2018-06-10T11:28:27.813Z,40.31
2018-06-10T11:30:55.117Z,39.67
2018-06-10T11:33:22.589Z,39.49
2018-06-10T11:35:49.941Z,39.32
2018-06-10T11:38:17.285Z,37.89
2018-06-10T11:40:44.695Z,39.66
2018-06-10T11:43:12.031Z,39.71
2018-06-10T11:45:39.437Z,39.10
2018-06-10T11:48:06.777Z,40.14
2018-06-10T11:50:34.232Z,39.54
2018-06-10T11:53:01.580Z,38.61
2018-06-10T11:55:28.914Z,41.52
2018-06-10T11:57:56.200Z,38.47
2018-06-10T12:00:23.573Z,37.25
2018-06-10T12:02:50.794Z,39.06
2018-06-10T12:05:18.401Z,39.50
2018-06-10T12:07:45.720Z,38.03
2018-06-10T12:10:13.019Z,37.91
2018-06-10T12:12:40.393Z,35.91
2018-06-10T12:17:40.879Z,35.96
2018-06-10T12:20:08.156Z,37.74
2018-06-10T12:22:35.486Z,36.33
2018-06-10T12:25:02.822Z,35.23
2018-06-10T12:27:30.197Z,37.29
2018-06-10T12:29:57.545Z,34.13
2018-06-10T12:32:24.978Z,36.05
2018-06-10T12:34:52.240Z,37.13
2018-06-10T12:37:19.532Z,36.29
2018-06-10T12:39:46.910Z,35.60
2018-06-10T12:42:14.252Z,35.45
2018-06-10T12:44:41.562Z,34.47
2018-06-10T12:47:08.871Z,36.15
2018-06-10T12:49:36.557Z,35.21
2018-06-10T12:52:04.209Z,36.69
2018-06-10T12:54:31.511Z,37.90
2018-06-10T12:56:58.799Z,36.87
2018-06-10T12:59:26.235Z,35.38
2018-06-10T13:01:53.529Z,35.39
2018-06-10T13:04:20.894Z,36.42
2018-06-10T13:06:48.292Z,34.14
2018-06-10T13:09:15.570Z,37.13
2018-06-10T13:11:42.948Z,36.92
2018-06-10T13:14:10.225Z,35.97
2018-06-10T13:16:37.527Z,36.38
2018-06-10T13:19:05.250Z,37.86
2018-06-10T13:21:32.621Z,38.06
2018-06-10T13:24:00.099Z,38.43
2018-06-10T13:26:27.361Z,38.16
2018-06-10T13:29:03.792Z,38.76
2018-06-10T13:31:31.175Z,36.46
2018-06-10T13:33:58.636Z,37.41
2018-06-10T13:36:26.082Z,37.26
2018-06-10T13:38:53.430Z,37.67
2018-06-10T13:41:20.807Z,39.36
2018-06-10T13:43:48.172Z,40.82
2018-06-10T13:46:15.549Z,43.04
2018-06-10T13:48:42.857Z,42.38
2018-06-10T13:51:10.134Z,43.25
2018-06-10T13:53:37.444Z,44.00
2018-06-10T13:56:04.812Z,44.06
2018-06-10T13:58:32.102Z,44.11
2018-06-10T14:00:59.408Z,44.26
2018-06-10T14:03:26.750Z,43.05
2018-06-10T14:05:54.012Z,43.16
2018-06-10T14:08:21.285Z,45.10
2018-06-10T14:10:48.796Z,42.17
2018-06-10T14:13:16.129Z,42.73
2018-06-10T14:15:43.421Z,42.88
2018-06-10T14:18:10.770Z,45.55
2018-06-10T14:20:38.073Z,51.94
2018-06-10T14:23:05.363Z,56.10
2018-06-10T14:25:32.690Z,61.67
2018-06-10T14:28:00.381Z,67.90
2018-06-10T14:30:27.698Z,69.86
2018-06-10T14:32:54.966Z,73.90
2018-06-10T14:35:22.279Z,70.09
2018-06-10T14:37:49.731Z,73.57
2018-06-10T14:40:17.120Z,73.61
2018-06-10T14:42:44.398Z,74.20
2018-06-10T14:45:11.716Z,71.60
2018-06-10T14:47:39.071Z,71.87
2018-06-10T14:50:06.484Z,71.01
2018-06-10T14:52:33.748Z,71.01
2018-06-10T14:55:01.122Z,70.54
2018-06-10T14:57:28.372Z,64.19
2018-06-10T14:59:55.676Z,70.56
2018-06-10T15:02:22.973Z,68.62
2018-06-10T15:04:50.267Z,71.21
2018-06-10T15:07:17.562Z,72.47
2018-06-10T15:09:44.832Z,68.49
2018-06-10T15:12:12.178Z,69.29
2018-06-10T15:14:39.504Z,69.88
2018-06-10T15:17:06.826Z,67.60
2018-06-10T15:19:34.088Z,69.29
2018-06-10T15:22:01.394Z,68.07
2018-06-10T15:24:28.681Z,63.95
2018-06-10T15:26:55.935Z,61.19
2018-06-10T15:29:23.275Z,60.15
2018-06-10T15:31:50.780Z,57.39
2018-06-10T15:34:18.034Z,58.83
2018-06-10T15:36:45.308Z,58.33
2018-06-10T15:39:12.635Z,61.22
2018-06-10T15:41:40.037Z,61.22
2018-06-10T15:44:07.413Z,57.46
2018-06-10T15:46:34.730Z,60.23
2018-06-10T15:49:02.024Z,56.23
2018-06-10T15:51:29.373Z,54.76
2018-06-10T15:53:56.656Z,57.74
2018-06-10T15:56:24.192Z,49.45
2018-06-10T15:58:51.629Z,48.01
2018-06-10T16:01:18.943Z,46.83
2018-06-10T16:03:46.301Z,47.52
2018-06-10T16:06:13.634Z,44.97
2018-06-10T16:08:40.917Z,43.90
2018-06-10T16:11:08.237Z,40.15
2018-06-10T16:13:35.651Z,45.02
2018-06-10T16:16:03.259Z,44.13
2018-06-10T16:18:30.627Z,42.43
2018-06-10T16:20:57.904Z,42.68
2018-06-10T16:23:25.395Z,44.37
2018-06-10T16:25:52.700Z,41.01
2018-06-10T16:28:20.037Z,44.76
2018-06-10T16:30:47.340Z,43.93
2018-06-10T16:33:14.645Z,43.13
2018-06-10T16:35:42.087Z,44.37
2018-06-10T16:38:09.492Z,43.84
2018-06-10T16:40:36.852Z,45.85
2018-06-10T16:43:04.351Z,47.27
2018-06-10T16:45:31.700Z,45.90
2018-06-10T16:47:59.021Z,46.98
2018-06-10T16:50:26.421Z,46.29
2018-06-10T16:52:53.788Z,44.62
2018-06-10T16:55:21.134Z,43.42
2018-06-10T16:57:48.448Z,45.32
2018-06-10T17:00:15.841Z,44.49
2018-06-10T17:02:43.427Z,44.43
2018-06-10T17:05:10.915Z,44.80
2018-06-10T17:07:38.475Z,42.77
2018-06-10T17:10:05.981Z,42.64
2018-06-10T17:12:33.302Z,42.96
2018-06-10T17:15:03.546Z,43.19
2018-06-10T17:17:30.992Z,43.57
2018-06-10T17:19:58.647Z,43.89
2018-06-10T17:22:25.988Z,42.80
2018-06-10T17:24:53.364Z,45.57
2018-06-10T17:27:20.778Z,47.75
2018-06-10T17:29:48.072Z,46.79
2018-06-10T17:32:15.485Z,45.92
2018-06-10T17:34:42.978Z,43.93
2018-06-10T17:37:10.222Z,44.15
2018-06-10T17:39:38.253Z,44.82
2018-06-10T17:42:15.292Z,43.94
2018-06-10T17:44:43.266Z,43.43
2018-06-10T17:47:10.639Z,43.83
2018-06-10T17:49:38.660Z,46.94
2018-06-10T17:52:06.057Z,46.17
2018-06-10T17:54:33.360Z,44.41
2018-06-10T17:57:05.783Z,55.40
2018-06-10T17:59:33.292Z,57.47
2018-06-10T18:02:00.705Z,58.79
2018-06-10T18:04:28.020Z,58.61
2018-06-10T18:06:55.640Z,58.86
2018-06-10T18:09:22.988Z,56.28
2018-06-10T18:11:50.579Z,56.14
2018-06-10T18:14:18.040Z,56.24
2018-06-10T18:16:45.403Z,57.52
2018-06-10T18:19:12.677Z,57.11
2018-06-10T18:21:39.998Z,58.86
2018-06-10T18:24:07.311Z,59.58
2018-06-10T18:26:34.795Z,60.61
2018-06-10T18:29:02.053Z,60.78
2018-06-10T18:31:29.382Z,59.64
2018-06-10T18:33:56.759Z,60.50
2018-06-10T18:36:24.105Z,58.85
2018-06-10T18:38:51.399Z,59.19
2018-06-10T18:41:18.712Z,59.56
2018-06-10T18:43:46.028Z,57.56
2018-06-10T18:46:13.349Z,58.72
2018-06-10T18:48:40.767Z,59.09
2018-06-10T18:51:08.004Z,58.96
2018-06-10T18:53:35.350Z,60.67
2018-06-10T18:56:02.667Z,62.31
2018-06-10T18:58:30.017Z,64.09
2018-06-10T19:00:57.365Z,67.76
2018-06-10T19:03:24.857Z,66.89
2018-06-10T19:05:52.230Z,69.89
2018-06-10T19:08:19.573Z,69.86
2018-06-10T19:10:46.841Z,69.92
2018-06-10T19:13:14.130Z,68.08
2018-06-10T19:15:41.824Z,71.46
2018-06-10T19:18:09.039Z,70.44
2018-06-10T19:20:36.404Z,69.19
2018-06-10T19:23:03.752Z,70.17
2018-06-10T19:25:31.109Z,72.03
2018-06-10T19:27:58.537Z,72.61
2018-06-10T19:30:25.843Z,71.89
2018-06-10T19:32:53.236Z,72.01
2018-06-10T19:35:20.622Z,72.37
2018-06-10T19:37:49.112Z,72.83
2018-06-10T19:40:16.393Z,73.42
2018-06-10T19:42:43.697Z,73.64
2018-06-10T19:45:10.990Z,75.01
2018-06-10T19:47:50.747Z,76.22
2018-06-10T19:50:18.033Z,75.76
2018-06-10T19:52:45.331Z,75.74
2018-06-10T19:55:12.652Z,75.84
2018-06-10T19:57:53.477Z,75.27
2018-06-10T20:00:21.742Z,73.50
2018-06-10T20:02:49.144Z,72.67
2018-06-10T20:05:22.431Z,73.08
2018-06-10T20:07:49.783Z,73.33
2018-06-10T20:10:17.209Z,73.90
2018-06-10T20:12:44.521Z,74.11
2018-06-10T20:15:11.835Z,75.37
2018-06-10T20:17:39.189Z,74.60
2018-06-10T20:20:06.890Z,75.19
2018-06-10T20:22:35.109Z,74.39
2018-06-10T20:25:15.976Z,74.59
2018-06-10T20:27:44.083Z,74.38
2018-06-10T20:30:11.865Z,74.74
2018-06-10T20:32:39.299Z,76.35
2018-06-10T20:35:06.806Z,74.89
2018-06-10T20:37:34.247Z,72.62
2018-06-10T20:40:01.797Z,73.20
2018-06-10T20:42:29.355Z,73.57
2018-06-10T20:44:56.743Z,74.38
2018-06-10T20:47:24.164Z,76.15
2018-06-10T20:49:51.623Z,75.90
2018-06-10T20:52:19.210Z,76.12
2018-06-10T20:54:47.154Z,76.03
2018-06-10T20:57:15.336Z,76.90
2018-06-10T20:59:43.229Z,75.93
2018-06-10T21:02:12.531Z,76.58
2018-06-10T21:04:40.190Z,76.48
2018-06-10T21:07:08.333Z,76.67
2018-06-10T21:09:36.935Z,76.04
2018-06-10T21:12:10.204Z,78.06
2018-06-10T21:14:43.342Z,76.34
2018-06-10T21:17:10.787Z,75.91
2018-06-10T21:19:38.273Z,75.68
2018-06-10T21:22:05.728Z,77.11
2018-06-10T21:24:32.990Z,76.88
2018-06-10T21:27:00.362Z,76.43
2018-06-10T21:29:27.725Z,76.01
2018-06-10T21:31:55.047Z,75.44
2018-06-10T21:34:34.319Z,76.47
2018-06-10T21:37:02.452Z,76.46
2018-06-10T21:39:29.817Z,76.76
2018-06-10T21:41:57.740Z,77.70
2018-06-10T21:44:25.083Z,76.65
2018-06-10T21:46:53.653Z,76.48
2018-06-10T21:49:21.032Z,76.67
2018-06-10T21:51:48.358Z,75.91
2018-06-10T21:54:15.729Z,75.52
2018-06-10T21:56:43.063Z,78.74
2018-06-10T21:59:21.678Z,78.97
2018-06-10T22:01:49.146Z,79.46
2018-06-10T22:04:20.262Z,77.26
2018-06-10T22:06:47.619Z,78.23
2018-06-10T22:09:14.960Z,76.77
2018-06-10T22:11:42.651Z,75.31
2018-06-10T22:14:10.081Z,74.52
2018-06-10T22:16:37.640Z,75.73
2018-06-10T22:19:05.395Z,75.27
2018-06-10T22:21:49.672Z,74.96
2018-06-10T22:24:17.767Z,74.97
2018-06-10T22:26:45.079Z,74.79
2018-06-10T22:29:12.381Z,75.23
2018-06-10T22:31:39.706Z,74.62
2018-06-10T22:34:07.058Z,75.28
2018-06-10T22:36:34.400Z,75.91
2018-06-10T22:39:01.703Z,76.24
2018-06-10T22:41:28.959Z,75.77
2018-06-10T22:43:56.339Z,75.37
2018-06-10T22:46:23.595Z,76.10
2018-06-10T22:48:50.886Z,75.92
2018-06-10T22:51:18.329Z,75.91
2018-06-10T22:54:22.779Z,75.73
2018-06-10T22:56:50.118Z,76.31
2018-06-10T22:59:17.391Z,76.53
2018-06-10T23:01:44.709Z,75.69
2018-06-10T23:04:11.993Z,76.40
2018-06-10T23:06:39.305Z,75.85
2018-06-10T23:09:07.158Z,75.52
2018-06-10T23:11:34.436Z,75.83
2018-06-10T23:14:01.817Z,76.24
2018-06-10T23:16:29.114Z,76.10
2018-06-10T23:18:56.535Z,75.84
2018-06-10T23:21:23.821Z,76.52
2018-06-10T23:23:51.894Z,76.20
2018-06-10T23:26:19.162Z,77.44
2018-06-10T23:28:46.517Z,77.13
2018-06-10T23:31:13.793Z,77.24
2018-06-10T23:33:41.123Z,77.84
2018-06-10T23:36:08.470Z,77.66
2018-06-10T23:38:35.812Z,78.80
2018-06-10T23:41:03.177Z,77.97
2018-06-10T23:43:30.416Z,77.10
2018-06-10T23:45:57.762Z,78.39
2018-06-10T23:48:25.162Z,78.09
2018-06-10T23:50:52.405Z,79.45
2018-06-10T23:53:19.688Z,78.89
2018-06-10T23:55:46.944Z,78.85
2018-06-10T23:58:14.167Z,77.71
